Latest Weather Observations for Leonora Airport

IDW60801

Issued at 11:03 am WST Friday 19 January 2018 (issued every 30 minutes, with the page automatically refreshed every 10 minutes)

About weather observations | Map of weather stations | Latest weather observations for WA | Other Formats
Station Details ID: 012241 Name: LEONORA AERO Lat: -28.88 Lon: 121.32 Height: 370.0 m
Data from the previous 72 hours. | See also: Recent months at Leonora Airport
Date/Time
WST
Temp
°C
App
Temp
°C
Dew
Point
°C
Rel
Hum
%
Delta-T
°C
Wind Press
QNH
hPa
Press
MSL
hPa
Rain since
9am
mm
Dir  Spd
km/h
Gust
km/h
Spd
kts
Gust
kts
19/11:00am 26.1 23.1 14.9 50 6.8 SE 24 35 13 19 1014.0 1011.3 0.2
19/10:30am 25.2 22.5 14.6 51 6.4 SE 22 35 12 19 1014.3 1011.6 0.2
19/10:00am 24.5 21.5 14.9 55 5.8 ESE 24 33 13 18 1014.3 1011.6 0.0
19/09:30am 23.9 21.4 15.1 58 5.3 SE 22 33 12 18 1014.6 1011.9 0.0
19/09:00am 23.2 20.3 15.0 60 5.0 SE 24 33 13 18 1014.7 1012.0 9.0
19/08:30am 22.8 20.1 15.6 64 4.4 SE 24 37 13 20 1014.5 1011.8 9.0
19/08:00am 22.3 19.1 15.4 65 4.2 SE 26 39 14 21 1014.6 1011.9 9.0
19/07:30am 21.9 19.1 15.3 66 4.0 SE 24 37 13 20 1014.5 1011.8 9.0
19/07:00am 21.4 18.7 15.7 70 3.5 SE 24 37 13 20 1014.0 1011.3 9.0
19/06:30am 21.3 18.7 16.0 72 3.2 SE 24 37 13 20 1013.8 1011.1 9.0
19/06:00am 21.4 18.5 16.1 72 3.2 SE 26 35 14 19 1013.4 1010.7 9.0
19/05:30am 21.7 20.4 16.9 74 3.0 SE 19 24 10 13 1012.8 1010.1 9.0
19/05:00am 22.0 20.5 16.7 72 3.3 SE 20 30 11 16 1012.4 1009.8 9.0
19/04:30am 22.3 20.8 16.8 71 3.4 SE 20 30 11 16 1012.2 1009.5 9.0
19/04:00am 23.0 21.7 17.2 70 3.6 SE 20 32 11 17 1011.8 1009.1 9.0
19/03:30am 23.6 22.3 17.3 67 4.0 SE 20 35 11 19 1011.6 1008.9 9.0
19/03:00am 23.5 23.1 18.8 75 3.0 SE 19 28 10 15 1011.5 1008.8 9.0
19/02:30am 23.5 23.7 19.4 78 2.7 SE 17 24 9 13 1011.3 1008.6 9.0
19/02:00am 23.5 23.2 19.2 77 2.8 SE 19 28 10 15 1011.3 1008.6 9.0
19/01:30am 23.6 22.9 18.7 74 3.1 SE 20 30 11 16 1011.3 1008.6 9.0
19/01:00am 23.5 23.5 19.0 76 2.9 ESE 17 20 9 11 1011.1 1008.4 9.0
19/12:30am 23.6 23.9 18.7 74 3.1 ESE 15 20 8 11 1010.8 1008.1 9.0
19/12:00am 24.4 24.3 18.8 71 3.6 SE 17 28 9 15 1010.6 1007.9 9.0
 
Date/Time
WST
Temp
°C
App
Temp
°C
Dew
Point
°C
Rel
Hum
%
Delta-T
°C
Wind Press
QNH
hPa
Press
MSL
hPa
Rain since
9am
mm
Dir  Spd
km/h
Gust
km/h
Spd
kts
Gust
kts
18/11:30pm 24.6 24.6 19.7 74 3.2 ESE 19 28 10 15 1010.9 1008.2 9.0
18/11:00pm 24.6 24.1 19.9 75 3.1 SSE 22 33 12 18 1010.5 1007.8 9.0
18/10:30pm 24.5 24.0 20.0 76 3.0 SE 22 32 12 17 1010.6 1007.9 9.0
18/10:00pm 24.7 23.9 19.3 72 3.5 SSE 22 32 12 17 1011.5 1008.8 9.0
18/09:30pm 24.3 25.2 20.8 81 2.3 S 17 24 9 13 1011.8 1009.1 8.8
18/09:00pm 24.0 24.8 21.3 85 1.8 S 19 26 10 14 1011.9 1009.2 8.6
18/08:30pm 24.2 25.2 20.3 79 2.6 SW 15 20 8 11 1011.8 1009.1 8.6
18/08:00pm 24.2 27.2 21.3 84 1.9 SE 7 20 4 11 1011.6 1008.9 8.6
18/07:30pm 24.4 26.4 21.5 84 1.9 NNE 13 19 7 10 1010.5 1007.8 7.6
18/07:00pm 24.9 27.2 20.6 77 2.9 NE 9 11 5 6 1010.1 1007.4 5.8
18/06:30pm 24.6 26.9 19.9 75 3.1 SSE 7 11 4 6 1010.9 1008.2 5.0
18/06:00pm 25.3 26.3 20.3 74 3.3 NNW 15 22 8 12 1010.1 1007.4 3.6
18/05:46pm 25.2 23.8 20.5 75 3.1 N 28 39 15 21 1009.4 1006.7 3.2
18/05:44pm 25.5 24.0 20.3 73 3.4 N 28 39 15 21 1009.4 1006.7 3.2
18/05:31pm 24.8 21.2 20.1 75 3.1 N 39 57 21 31 1008.9 1006.2 2.8
18/05:30pm 25.0 21.1 20.3 75 3.1 N 41 57 22 31 1008.9 1006.2 2.6
18/05:27pm 25.1 20.5 19.7 72 3.5 N 43 57 23 31 1008.5 1005.8 2.2
18/05:10pm 28.3 22.9 17.8 53 6.8 N 43 80 23 43 1007.7 1005.0 0.0
18/05:02pm 31.5 27.0 16.3 40 9.7 N 35 61 19 33 1007.5 1004.7 0.0
18/05:00pm 32.1 28.6 15.6 37 10.4 N 28 50 15 27 1007.4 1004.6 0.0
18/04:58pm 32.9 31.0 15.8 35 10.8 NNE 20 48 11 26 1007.2 1004.4 0.0
18/04:30pm 37.1 35.5 15.0 27 14.1 S 17 24 9 13 1005.7 1003.0 0.0
18/04:00pm 37.0 35.5 14.3 26 14.3 S 15 24 8 13 1005.4 1002.7 0.0
18/03:30pm 37.7 35.5 14.9 26 14.5 S 20 32 11 17 1005.8 1003.1 0.0
18/03:00pm 37.6 35.6 15.4 27 14.2 S 20 33 11 18 1006.2 1003.5 0.0
18/02:30pm 36.2 35.8 15.3 28 13.3 SE 11 24 6 13 1006.3 1003.6 0.0
18/02:00pm 36.4 36.1 15.5 29 13.4 W 11 17 6 9 1006.6 1003.9 0.0
18/01:30pm 34.5 32.8 17.3 36 11.2 WNW 22 37 12 20 1007.2 1004.4 0.0
18/01:00pm 36.7 36.7 15.2 27 13.7 NW 9 19 5 10 1007.3 1004.5 0.0
18/12:30pm 36.3 36.6 14.9 28 13.6 S 7 13 4 7 1007.6 1004.9 0.0
18/12:00pm 35.8 34.7 14.4 27 13.5 W 13 22 7 12 1008.0 1005.3 0.0
18/11:30am 35.6 35.2 15.3 29 12.9 NW 11 26 6 14 1008.2 1005.5 0.0
18/11:00am 34.3 34.7 16.2 34 11.6 SSE 9 15 5 8 1008.7 1006.0 0.0
18/10:30am 33.4 33.8 16.3 36 10.9 SSE 9 20 5 11 1008.9 1006.2 0.0
18/10:00am 32.5 33.1 15.9 36 10.5 SSE 7 13 4 7 1009.0 1006.3 0.0
18/09:30am 32.0 33.6 17.9 43 9.2 SSE 6 13 3 7 1009.1 1006.4 0.0
18/09:00am 30.3 31.8 17.7 46 8.2 S 6 15 3 8 1009.1 1006.4 0.0
18/08:30am 28.7 29.8 17.9 52 7.0 S 9 13 5 7 1009.0 1006.3 0.0
18/08:00am 28.3 29.2 17.5 52 6.9 SSW 9 13 5 7 1009.0 1006.3 0.0
18/07:30am 27.9 28.5 16.8 50 7.0 WSW 9 13 5 7 1008.9 1006.2 0.0
18/07:00am 27.8 27.7 17.0 51 6.9 W 13 17 7 9 1008.8 1006.1 0.0
18/06:30am 27.6 27.6 17.2 53 6.6 WNW 13 17 7 9 1008.8 1006.1 0.0
18/06:00am 26.9 27.5 16.8 54 6.4 W 9 13 5 7 1008.3 1005.6 0.0
18/05:30am 27.2 28.6 16.5 52 6.7 W 4 9 2 5 1008.0 1005.3 0.0
18/05:00am 27.2 29.4 16.5 52 6.7 CALM 0 0 0 0 1007.7 1005.0 0.0
18/04:30am 27.3 29.4 16.3 51 6.9 CALM 0 0 0 0 1007.2 1004.4 0.0
18/04:00am 27.4 29.4 16.1 50 7.1 CALM 0 0 0 0 1006.9 1004.1 0.0
18/03:30am 27.6 29.6 15.9 49 7.3 CALM 0 0 0 0 1006.6 1003.9 0.0
18/03:00am 27.6 28.3 15.6 48 7.5 NNW 6 9 3 5 1006.7 1004.0 0.0
18/02:30am 27.8 27.9 15.5 47 7.6 N 9 11 5 6 1007.0 1004.2 0.0
18/02:00am 27.9 28.0 15.5 46 7.7 NW 9 13 5 7 1007.3 1004.5 0.0
18/01:30am 28.2 27.4 15.1 44 8.1 W 13 19 7 10 1007.4 1004.6 0.0
18/01:00am 28.5 28.0 15.8 46 8.0 WSW 13 19 7 10 1007.5 1004.7 0.0
18/12:30am 29.0 27.5 16.2 46 8.1 W 19 24 10 13 1007.7 1005.0 0.0
18/12:00am 29.2 30.3 17.1 48 7.7 W 7 9 4 5 1007.7 1005.0 0.0
 
Date/Time
WST
Temp
°C
App
Temp
°C
Dew
Point
°C
Rel
Hum
%
Delta-T
°C
Wind Press
QNH
hPa
Press
MSL
hPa
Rain since
9am
mm
Dir  Spd
km/h
Gust
km/h
Spd
kts
Gust
kts
17/11:30pm 29.3 29.9 16.8 47 7.9 WSW 9 13 5 7 1007.8 1005.1 0.0
17/11:00pm 29.7 29.2 16.8 45 8.2 W 15 19 8 10 1008.4 1005.7 0.0
17/10:30pm 29.9 29.9 16.3 43 8.6 WSW 11 15 6 8 1008.2 1005.5 0.0
17/10:00pm 30.2 29.8 16.2 42 8.9 S 13 20 7 11 1007.8 1005.1 0.0
17/09:30pm 30.4 29.7 16.4 43 8.9 SSW 15 20 8 11 1007.8 1005.1 0.0
17/09:00pm 30.7 28.6 16.3 42 9.2 SSW 22 33 12 18 1007.6 1004.9 0.0
17/08:30pm 32.2 30.0 14.8 35 10.9 SSW 20 30 11 16 1006.7 1004.0 0.0
17/08:00pm 35.4 29.9 5.8 16 16.4 NNE 24 33 13 18 1005.3 1002.6 0.0
17/07:30pm 36.1 31.6 6.3 16 16.6 NNE 19 26 10 14 1005.1 1002.3 0.0
17/07:00pm 36.7 32.4 6.8 16 16.9 NNE 19 26 10 14 1004.6 1001.8 0.0
17/06:30pm 37.4 33.5 7.3 16 17.1 N 17 24 9 13 1004.3 1001.5 0.0
17/06:00pm 38.6 35.5 7.4 15 18.0 NW 13 20 7 11 1004.1 1001.3 0.0
17/05:30pm 38.6 35.5 7.4 15 17.9 NNW 13 26 7 14 1003.8 1001.1 0.0
17/05:00pm 38.2 34.3 7.0 15 17.8 N 17 24 9 13 1003.9 1001.2 0.0
17/04:30pm 38.7 35.1 8.4 16 17.6 NNE 17 26 9 14 1003.8 1001.1 0.0
17/04:00pm 38.5 34.9 8.2 16 17.6 NNW 17 35 9 19 1004.3 1001.5 0.0
17/03:30pm 38.3 35.0 8.1 16 17.5 NW 15 28 8 15 1004.6 1001.8 0.0
17/03:00pm 37.9 35.1 8.6 17 17.1 NW 13 30 7 16 1005.0 1002.2 0.0
17/02:30pm 38.1 34.2 8.8 17 17.1 NW 19 33 10 18 1005.4 1002.7 0.0
17/02:00pm 38.3 35.2 9.0 17 17.2 NNE 15 22 8 12 1005.8 1003.1 0.0
17/01:30pm 37.4 34.0 9.1 18 16.6 NW 17 28 9 15 1006.2 1003.5 0.0
17/01:00pm 37.4 33.6 9.1 18 16.6 NW 19 32 10 17 1006.4 1003.7 0.0
17/12:30pm 36.5 32.1 7.5 17 16.5 NNW 20 26 11 14 1006.9 1004.1 0.0
17/12:00pm 36.1 31.7 7.2 17 16.4 NNW 20 32 11 17 1007.3 1004.5 0.0
17/11:30am 35.4 31.4 6.6 17 16.1 NNE 17 26 9 14 1007.7 1005.0 0.0
17/11:00am 34.5 29.8 5.9 17 15.8 N 20 32 11 17 1008.3 1005.6 0.0
17/10:30am 34.3 29.7 6.6 18 15.4 N 20 33 11 18 1008.8 1006.1 0.0
17/10:00am 32.4 28.0 6.6 20 14.2 N 19 32 10 17 1009.3 1006.6 0.0
17/09:30am 33.1 27.2 5.6 18 14.9 NNW 26 32 14 17 1009.5 1006.8 0.0
17/09:00am 32.3 26.9 6.5 20 14.2 NNW 24 32 13 17 1009.8 1007.0 0.2
17/08:30am 30.9 26.3 8.0 24 12.8 N 22 30 12 16 1009.8 1007.0 0.2
17/08:00am 29.9 26.7 9.9 29 11.5 N 17 24 9 13 1009.9 1007.1 0.2
17/07:30am 28.5 26.5 11.6 35 9.9 N 13 17 7 9 1010.0 1007.2 0.2
17/07:00am 27.1 25.4 12.3 39 8.7 N 13 15 7 8 1010.0 1007.2 0.2
17/06:30am 27.0 25.1 11.9 39 8.8 N 13 20 7 11 1010.0 1007.2 0.2
17/06:00am 26.5 25.9 12.2 41 8.4 NE 7 11 4 6 1009.6 1006.9 0.2
17/05:30am 26.6 26.0 12.3 41 8.4 NNW 7 11 4 6 1009.5 1006.8 0.2
17/05:00am 27.0 25.3 12.3 40 8.7 NNE 13 17 7 9 1009.2 1006.5 0.2
17/04:30am 27.1 25.3 13.4 42 8.2 NNE 15 20 8 11 1008.9 1006.2 0.2
17/04:00am 27.2 26.7 13.9 44 8.0 N 9 13 5 7 1008.7 1006.0 0.2
17/03:30am 27.7 26.1 14.0 43 8.3 NNE 15 20 8 11 1008.4 1005.7 0.2
17/03:00am 27.6 26.9 14.3 44 8.1 NNE 11 15 6 8 1008.6 1005.9 0.2
17/02:30am 27.6 27.8 14.3 44 8.1 NNE 6 9 3 5 1008.9 1006.2 0.2
17/02:00am 27.8 27.8 14.1 43 8.3 NE 7 13 4 7 1009.0 1006.3 0.2
17/01:30am 28.0 27.5 13.9 42 8.5 NE 9 15 5 8 1009.1 1006.4 0.2
17/01:00am 28.1 26.6 13.2 39 8.9 ENE 13 17 7 9 1009.2 1006.5 0.2
17/12:30am 28.3 26.6 12.6 38 9.3 NE 13 20 7 11 1009.5 1006.8 0.2
17/12:00am 28.7 25.8 12.2 36 9.8 NE 19 26 10 14 1009.9 1007.1 0.2
 
Date/Time
WST
Temp
°C
App
Temp
°C
Dew
Point
°C
Rel
Hum
%
Delta-T
°C
Wind Press
QNH
hPa
Press
MSL
hPa
Rain since
9am
mm
Dir  Spd
km/h
Gust
km/h
Spd
kts
Gust
kts
16/11:30pm 29.1 26.5 12.1 35 10.1 NE 17 24 9 13 1010.1 1007.4 0.2
16/11:00pm 29.5 27.0 11.1 32 10.7 NE 15 22 8 12 1010.2 1007.5 0.2
16/10:30pm 29.9 26.4 10.9 31 11.1 ENE 20 28 11 15 1010.3 1007.6 0.2
16/10:00pm 30.3 26.8 10.8 30 11.4 NE 20 28 11 15 1010.5 1007.8 0.2
16/09:30pm 30.6 26.2 10.5 29 11.7 NE 24 33 13 18 1010.4 1007.7 0.2
16/09:00pm 30.8 27.1 10.2 28 11.9 NE 20 30 11 16 1010.5 1007.8 0.2
16/08:30pm 31.2 27.2 10.5 28 12.0 ENE 22 30 12 16 1010.3 1007.6 0.2
16/08:00pm 32.2 29.7 9.7 25 13.0 NNE 13 20 7 11 1009.9 1007.1 0.2
16/07:30pm 32.6 28.5 8.8 23 13.6 NNE 20 26 11 14 1009.2 1006.5 0.2
16/07:00pm 33.1 29.5 8.5 22 14.0 NE 17 22 9 12 1008.9 1006.2 0.2
16/06:30pm 33.7 29.5 8.3 21 14.4 NE 20 26 11 14 1008.7 1006.0 0.2
16/06:00pm 34.5 30.9 8.3 20 15.0 NE 17 26 9 14 1008.4 1005.7 0.2
16/05:30pm 34.8 31.1 9.3 21 14.8 NE 19 28 10 15 1008.2 1005.5 0.2
16/05:00pm 35.4 30.6 9.0 20 15.3 NNE 24 32 13 17 1008.2 1005.5 0.2
16/04:51pm 35.3 30.9 8.9 20 15.3 NNE 22 41 12 22 1008.2 1005.5 0.2
16/04:30pm 34.9 32.3 10.7 23 14.4 NE 15 26 8 14 1008.3 1005.6 0.2
16/04:00pm 35.3 32.2 10.4 22 14.8 NNE 17 24 9 13 1008.7 1006.0 0.2
16/03:30pm 34.6 31.2 9.1 21 14.7 NNE 17 28 9 15 1009.0 1006.3 0.2
16/03:00pm 35.2 31.9 9.6 21 15.0 N 17 28 9 15 1009.3 1006.6 0.2
16/02:30pm 34.7 31.7 10.5 23 14.3 N 17 26 9 14 1009.6 1006.9 0.2
16/02:00pm 34.8 32.5 10.6 23 14.3 ENE 13 26 7 14 1010.1 1007.4 0.2
16/01:30pm 33.9 30.9 9.2 22 14.3 NE 15 28 8 15 1010.5 1007.8 0.2
16/01:00pm 33.7 29.9 9.0 22 14.2 N 19 30 10 16 1011.0 1008.3 0.2
16/12:30pm 33.9 30.0 8.5 21 14.5 NNE 19 32 10 17 1011.1 1008.4 0.2
16/12:00pm 32.9 28.2 7.7 21 14.2 N 22 32 12 17 1011.8 1009.1 0.2
16/11:30am 31.8 27.2 8.1 23 13.3 NNE 22 35 12 19 1012.2 1009.5 0.2

Other Formats:

Comma delimited format used in spreadsheet applications
http://www.bom.gov.au/fwo/IDW60801/IDW60801.94450.axf

JavaScript Object Notation format (JSON) in row-major order
http://www.bom.gov.au/fwo/IDW60801/IDW60801.94450.json